Time;durP1;ratioP1;P1;durP2;ratioP2;P2;SDS_P1;SDS_P2;PMS_P1;PMS_P2;Temp;Humidity;BMP_temperature;BMP_pressure;BME280_temperature;BME280_humidity;BME280_pressure;Samples;Min_cycle;Max_cycle;Signal;HPM_P1;HPM_P2
2023/09/27 00:01:38;;;;;;;9.38;6.10;;;21.70;96.70;;;;;;5027334;28;20057;-81
2023/09/27 00:04:06;;;;;;;7.47;5.22;;;21.70;96.70;;;;;;5023408;28;20164;-80
2023/09/27 00:06:35;;;;;;;4.95;4.40;;;21.70;96.70;;;;;;5020914;28;20317;-80
2023/09/27 00:09:04;;;;;;;5.88;4.85;;;21.70;96.70;;;;;;5025433;28;20048;-81
2023/09/27 00:11:32;;;;;;;5.53;4.40;;;21.70;96.70;;;;;;5024613;28;20064;-80
2023/09/27 00:14:00;;;;;;;8.98;5.45;;;21.70;96.70;;;;;;5024003;28;20099;-80
2023/09/27 00:16:28;;;;;;;6.88;4.80;;;21.70;96.70;;;;;;5023845;28;20104;-80
2023/09/27 00:18:56;;;;;;;6.97;5.00;;;21.70;96.70;;;;;;5032658;28;20073;-80
2023/09/27 00:21:24;;;;;;;8.13;4.78;;;21.70;96.70;;;;;;5027108;28;20499;-79
2023/09/27 00:23:53;;;;;;;5.38;4.55;;;21.60;96.70;;;;;;5007027;28;20402;-79
2023/09/27 00:26:21;;;;;;;5.88;4.88;;;21.40;96.70;;;;;;5028412;28;20049;-80
2023/09/27 00:28:50;;;;;;;5.20;4.70;;;21.50;96.70;;;;;;5023616;28;20604;-80
2023/09/27 00:31:18;;;;;;;6.35;4.93;;;21.50;96.70;;;;;;5024742;28;20495;-79
2023/09/27 00:33:46;;;;;;;5.43;4.38;;;21.50;96.70;;;;;;5007660;28;20052;-81
2023/09/27 00:36:16;;;;;;;6.28;4.93;;;21.50;96.70;;;;;;5025054;28;20046;-80
2023/09/27 00:38:44;;;;;;;6.68;4.80;;;21.40;96.70;;;;;;5023487;28;20081;-80
2023/09/27 00:41:14;;;;;;;6.97;4.75;;;21.40;96.70;;;;;;5029560;28;20487;-81
2023/09/27 00:43:42;;;;;;;6.22;4.35;;;21.30;96.70;;;;;;5025321;28;20572;-80
2023/09/27 00:46:12;;;;;;;6.13;4.88;;;21.40;96.70;;;;;;5026959;28;20127;-81
2023/09/27 00:48:41;;;;;;;7.72;4.80;;;21.40;96.70;;;;;;5036525;28;20064;-80
2023/09/27 00:51:09;;;;;;;6.75;5.68;;;21.30;96.70;;;;;;5023863;28;20041;-80
2023/09/27 00:53:39;;;;;;;7.35;5.40;;;21.30;96.70;;;;;;5022977;28;20563;-80
2023/09/27 00:56:08;;;;;;;6.22;5.18;;;21.20;96.70;;;;;;5024438;28;20049;-80
2023/09/27 00:58:38;;;;;;;5.97;4.97;;;21.20;96.70;;;;;;5028043;28;20136;-80
2023/09/27 01:01:07;;;;;;;7.80;4.90;;;21.20;96.70;;;;;;5022909;28;20060;-80
2023/09/27 01:03:36;;;;;;;5.45;4.70;;;21.10;96.70;;;;;;5025860;28;20048;-79
2023/09/27 01:06:04;;;;;;;5.70;5.15;;;21.00;96.70;;;;;;5029594;28;20052;-79
2023/09/27 01:08:32;;;;;;;7.07;4.85;;;20.90;96.70;;;;;;5023060;28;20067;-78
2023/09/27 01:11:02;;;;;;;7.30;5.13;;;21.00;96.70;;;;;;5023932;28;20080;-80
2023/09/27 01:13:31;;;;;;;8.98;5.18;;;21.00;96.70;;;;;;5026761;28;20136;-81
2023/09/27 01:16:01;;;;;;;7.55;5.05;;;21.10;96.70;;;;;;5025226;28;20443;-80
2023/09/27 01:18:29;;;;;;;7.15;4.95;;;21.00;96.70;;;;;;5029716;28;20055;-80
2023/09/27 01:20:57;;;;;;;5.18;4.68;;;21.00;96.70;;;;;;5010480;28;20045;-80
2023/09/27 01:23:28;;;;;;;6.93;4.32;;;21.00;96.70;;;;;;5010130;28;20052;-80
2023/09/27 01:25:58;;;;;;;7.50;5.15;;;21.10;96.70;;;;;;5028500;28;20068;-80
2023/09/27 01:28:27;;;;;;;5.65;4.38;;;20.90;96.70;;;;;;5027812;28;20049;-80
2023/09/27 01:30:55;;;;;;;5.85;4.80;;;20.80;96.70;;;;;;5028673;28;20620;-80
2023/09/27 01:33:22;;;;;;;6.85;5.28;;;20.80;96.70;;;;;;5029860;28;20057;-80
2023/09/27 01:36:18;;;;;;;7.07;4.85;;;20.90;96.70;;;;;;5010913;28;20099;-80
2023/09/27 01:38:48;;;;;;;6.90;5.43;;;20.70;96.70;;;;;;5026539;28;20065;-81
2023/09/27 01:41:17;;;;;;;6.43;5.13;;;20.70;96.70;;;;;;5011832;28;20503;-80
2023/09/27 01:43:46;;;;;;;5.38;4.88;;;20.80;96.70;;;;;;5028947;28;20052;-80
2023/09/27 01:46:14;;;;;;;9.00;5.20;;;20.70;96.70;;;;;;5028576;28;20528;-80
2023/09/27 01:48:42;;;;;;;11.27;5.43;;;20.70;96.70;;;;;;5026955;28;20053;-79
2023/09/27 01:51:10;;;;;;;7.57;5.15;;;20.60;96.70;;;;;;5016017;28;20627;-79
2023/09/27 01:53:38;;;;;;;5.85;4.60;;;20.60;96.70;;;;;;5026153;28;20053;-80
2023/09/27 01:56:07;;;;;;;5.47;4.78;;;20.60;96.70;;;;;;5010472;28;20052;-79
2023/09/27 01:58:36;;;;;;;6.45;4.70;;;20.60;96.70;;;;;;5010655;28;20810;-80
2023/09/27 02:01:04;;;;;;;6.22;4.85;;;20.70;96.70;;;;;;5031247;28;20409;-81
2023/09/27 02:03:32;;;;;;;7.60;5.28;;;20.70;96.70;;;;;;5029780;28;20167;-81
2023/09/27 02:06:00;;;;;;;6.20;5.30;;;20.60;96.70;;;;;;5027268;28;20588;-81
2023/09/27 02:08:30;;;;;;;5.28;4.80;;;20.40;96.70;;;;;;5026487;28;20053;-79
2023/09/27 02:10:58;;;;;;;6.50;5.05;;;20.40;96.70;;;;;;5027752;28;20119;-80
2023/09/27 02:13:28;;;;;;;8.73;5.72;;;20.50;96.70;;;;;;5027980;28;20799;-79
2023/09/27 02:15:56;;;;;;;6.75;4.63;;;20.50;96.70;;;;;;5027207;28;20462;-81
2023/09/27 02:18:24;;;;;;;6.72;4.88;;;20.50;96.70;;;;;;5019028;28;20048;-80
2023/09/27 02:20:52;;;;;;;4.47;4.07;;;20.50;96.70;;;;;;5026646;28;20065;-80
2023/09/27 02:23:20;;;;;;;5.68;5.10;;;20.40;96.70;;;;;;5010424;28;20075;-80
2023/09/27 02:25:56;;;;;;;6.03;4.47;;;20.40;96.70;;;;;;5026512;28;20136;-80
2023/09/27 02:28:24;;;;;;;7.13;4.35;;;20.40;96.70;;;;;;5025981;28;20049;-81
2023/09/27 02:30:54;;;;;;;6.15;4.30;;;20.40;96.70;;;;;;5030054;28;20053;-80
2023/09/27 02:33:22;;;;;;;4.43;3.88;;;20.30;96.70;;;;;;5026918;28;20041;-79
2023/09/27 02:35:50;;;;;;;5.22;4.65;;;20.30;96.70;;;;;;5026159;28;20040;-80
2023/09/27 02:38:18;;;;;;;5.78;4.47;;;20.30;96.70;;;;;;5025422;28;20602;-80
2023/09/27 02:40:46;;;;;;;7.55;4.70;;;20.30;96.70;;;;;;5030020;28;20510;-81
2023/09/27 02:43:14;;;;;;;6.90;4.15;;;20.20;96.70;;;;;;5025259;28;20410;-79
2023/09/27 02:45:43;;;;;;;4.85;4.25;;;20.30;96.70;;;;;;5027137;28;20049;-80
2023/09/27 02:48:12;;;;;;;5.13;4.30;;;20.20;96.70;;;;;;5025138;28;20472;-81
2023/09/27 02:50:40;;;;;;;5.97;4.70;;;20.20;96.70;;;;;;5009698;28;20417;-80
2023/09/27 02:53:08;;;;;;;5.28;4.78;;;20.20;96.70;;;;;;5025426;28;20063;-81
2023/09/27 02:55:37;;;;;;;7.93;4.65;;;20.20;96.70;;;;;;5026125;28;20148;-80
2023/09/27 02:58:05;;;;;;;6.88;5.18;;;20.20;96.70;;;;;;5006264;28;20598;-80
2023/09/27 03:00:34;;;;;;;5.95;5.05;;;20.00;96.70;;;;;;5023804;28;20064;-80
2023/09/27 03:03:03;;;;;;;7.68;5.10;;;20.00;96.70;;;;;;5020770;28;20067;-81
2023/09/27 03:05:36;;;;;;;7.97;5.03;;;20.00;96.70;;;;;;5025744;28;20548;-80
2023/09/27 03:08:05;;;;;;;5.65;4.97;;;20.00;96.70;;;;;;5024753;28;20556;-81
2023/09/27 03:10:38;;;;;;;6.07;5.38;;;19.90;96.70;;;;;;5025388;28;20052;-81
2023/09/27 03:13:07;;;;;;;6.00;5.10;;;19.70;96.70;;;;;;5025094;28;20148;-81
2023/09/27 03:15:36;;;;;;;7.38;5.28;;;19.70;96.70;;;;;;5025942;28;20049;-81
2023/09/27 03:18:05;;;;;;;6.72;5.55;;;19.70;96.70;;;;;;5025464;28;20045;-80
2023/09/27 03:20:36;;;;;;;8.48;4.80;;;19.70;96.70;;;;;;5024875;28;20119;-81
2023/09/27 03:23:04;;;;;;;9.65;5.18;;;19.70;96.70;;;;;;5026562;28;20044;-81
2023/09/27 03:25:32;;;;;;;9.40;4.20;;;19.60;96.70;;;;;;5025222;28;20038;-80
2023/09/27 03:28:00;;;;;;;7.43;5.40;;;19.60;96.70;;;;;;5026747;28;20045;-80
2023/09/27 03:30:28;;;;;;;5.78;4.95;;;19.60;96.70;;;;;;5026545;28;20096;-80
2023/09/27 03:32:56;;;;;;;7.50;5.22;;;19.30;96.70;;;;;;5029320;28;20234;-80
2023/09/27 03:35:24;;;;;;;8.43;5.28;;;19.30;96.70;;;;;;5024927;28;20075;-80
2023/09/27 03:37:56;;;;;;;7.25;5.22;;;19.20;96.70;;;;;;5007958;28;20076;-81
2023/09/27 03:40:24;;;;;;;6.78;5.53;;;19.30;96.70;;;;;;5024814;28;20056;-80
2023/09/27 03:42:52;;;;;;;6.40;5.45;;;19.30;96.70;;;;;;5024904;28;20056;-79
2023/09/27 03:45:20;;;;;;;7.38;5.43;;;19.20;96.70;;;;;;5024410;28;20049;-81
2023/09/27 03:47:49;;;;;;;8.40;6.07;;;19.40;96.70;;;;;;5024925;28;20136;-81
2023/09/27 03:50:20;;;;;;;8.23;5.40;;;19.30;96.70;;;;;;5018911;28;20061;-81
2023/09/27 03:52:48;;;;;;;7.45;5.20;;;19.30;96.70;;;;;;5028606;28;20188;-81
2023/09/27 03:55:18;;;;;;;9.02;5.85;;;19.50;96.70;;;;;;5033735;28;20137;-79
2023/09/27 03:57:45;;;;;;;5.80;5.20;;;19.50;96.70;;;;;;5027795;28;20498;-79
2023/09/27 04:00:16;;;;;;;6.05;4.75;;;19.30;96.70;;;;;;5010424;28;20096;-83
2023/09/27 04:02:47;;;;;;;6.68;5.50;;;19.30;96.70;;;;;;5027022;28;20053;-83
2023/09/27 04:05:22;;;;;;;7.88;5.75;;;19.30;96.70;;;;;;5010680;28;20332;-83
2023/09/27 04:07:51;;;;;;;7.00;5.43;;;19.30;96.70;;;;;;5007702;28;20080;-83
2023/09/27 04:10:20;;;;;;;9.82;5.90;;;19.30;96.70;;;;;;5010579;28;20052;-83
2023/09/27 04:12:48;;;;;;;6.05;5.40;;;19.40;96.70;;;;;;5026349;28;20561;-83
2023/09/27 04:15:17;;;;;;;5.50;5.00;;;19.30;96.70;;;;;;5027338;28;20131;-83
2023/09/27 04:17:44;;;;;;;5.85;5.35;;;19.40;96.70;;;;;;5007169;28;20073;-84
2023/09/27 04:20:17;;;;;;;6.40;5.43;;;19.40;96.70;;;;;;5039530;28;20049;-84
2023/09/27 04:22:47;;;;;;;7.00;5.53;;;19.30;96.70;;;;;;5035117;28;20056;-83
2023/09/27 04:25:16;;;;;;;7.60;5.47;;;19.10;96.70;;;;;;5009351;28;20392;-83
2023/09/27 04:27:46;;;;;;;8.77;5.53;;;19.00;96.70;;;;;;5028247;28;20471;-81
2023/09/27 04:30:15;;;;;;;7.40;5.93;;;19.10;96.70;;;;;;5010696;28;20514;-82
2023/09/27 04:32:44;;;;;;;7.13;5.13;;;19.30;96.70;;;;;;5028012;28;20124;-81
2023/09/27 04:35:15;;;;;;;6.85;5.40;;;19.30;96.70;;;;;;5025947;28;20056;-82
2023/09/27 04:37:44;;;;;;;6.25;5.18;;;19.20;96.70;;;;;;5042600;28;20051;-81
2023/09/27 04:40:13;;;;;;;6.00;5.32;;;19.10;96.70;;;;;;5010318;28;20053;-82
2023/09/27 04:42:42;;;;;;;6.30;5.55;;;19.10;96.70;;;;;;5010441;28;20049;-81
2023/09/27 04:45:13;;;;;;;6.07;5.45;;;19.10;96.70;;;;;;5027872;28;20068;-82
2023/09/27 04:47:44;;;;;;;8.70;5.80;;;19.00;96.70;;;;;;5006941;28;20054;-81
2023/09/27 04:50:13;;;;;;;8.05;5.47;;;19.00;96.70;;;;;;5022962;28;20076;-81
2023/09/27 04:52:41;;;;;;;8.02;5.30;;;19.10;96.70;;;;;;5027357;28;20510;-81
2023/09/27 04:55:10;;;;;;;10.10;6.10;;;19.00;96.70;;;;;;5025939;28;20056;-81
2023/09/27 04:57:38;;;;;;;9.55;5.28;;;19.00;96.70;;;;;;5026895;28;20564;-81
2023/09/27 05:00:14;;;;;;;7.05;4.80;;;19.00;96.70;;;;;;5023353;28;20072;-81
2023/09/27 05:02:43;;;;;;;6.30;5.30;;;19.00;96.70;;;;;;5026731;28;20128;-81
2023/09/27 05:05:11;;;;;;;5.85;4.78;;;18.90;96.70;;;;;;5009422;28;20752;-81
2023/09/27 05:07:40;;;;;;;8.48;5.10;;;18.90;96.70;;;;;;5025900;28;20503;-81
2023/09/27 05:10:09;;;;;;;6.38;4.85;;;18.90;96.70;;;;;;5027604;28;20510;-81
2023/09/27 05:12:38;;;;;;;7.10;4.88;;;18.80;96.70;;;;;;5027648;28;20072;-81
2023/09/27 05:15:07;;;;;;;6.65;4.75;;;18.80;96.70;;;;;;5026054;28;20487;-81
2023/09/27 05:17:35;;;;;;;7.78;4.93;;;18.80;96.70;;;;;;5026066;28;20053;-82
2023/09/27 05:20:10;;;;;;;8.13;5.20;;;18.80;96.70;;;;;;5026035;28;20041;-81
2023/09/27 05:22:39;;;;;;;;;;;18.60;96.70;;;;;;5010808;28;20080;-81
2023/09/27 05:25:10;;;;;;;7.22;4.93;;;18.40;96.70;;;;;;5026410;28;19925;-82
2023/09/27 05:27:39;;;;;;;6.18;4.80;;;18.40;96.70;;;;;;5026209;28;20420;-81
2023/09/27 05:30:09;;;;;;;7.55;5.10;;;18.50;96.70;;;;;;5027413;28;20056;-81
2023/09/27 05:32:36;;;;;;;8.75;4.88;;;18.60;96.70;;;;;;5036989;28;20137;-82
2023/09/27 05:35:07;;;;;;;7.47;5.00;;;18.70;96.70;;;;;;5026201;28;20077;-82
2023/09/27 05:37:35;;;;;;;7.57;5.50;;;18.90;96.70;;;;;;5023987;28;20056;-79
2023/09/27 05:40:04;;;;;;;6.22;5.38;;;19.00;96.70;;;;;;5028303;28;20100;-81
2023/09/27 05:42:33;;;;;;;7.55;5.57;;;19.00;96.70;;;;;;5025710;28;20170;-82
2023/09/27 05:45:01;;;;;;;9.48;5.32;;;19.00;96.70;;;;;;5019196;28;20052;-82
2023/09/27 05:47:29;;;;;;;7.53;5.35;;;18.70;96.70;;;;;;5025541;28;20046;-82
2023/09/27 05:49:57;;;;;;;7.57;5.03;;;18.80;96.70;;;;;;5025416;28;20056;-83
2023/09/27 05:52:27;;;;;;;8.77;5.47;;;18.90;96.70;;;;;;5025887;28;20546;-84
2023/09/27 05:54:56;;;;;;;7.38;5.93;;;19.00;96.70;;;;;;5027388;28;20153;-85
2023/09/27 05:57:24;;;;;;;6.80;5.30;;;19.10;96.70;;;;;;5025303;28;20152;-82
2023/09/27 05:59:52;;;;;;;8.05;5.75;;;19.20;96.70;;;;;;5027289;28;20064;-84
2023/09/27 06:02:20;;;;;;;10.15;5.72;;;19.20;96.70;;;;;;5027314;28;20049;-84
2023/09/27 06:04:49;;;;;;;10.65;5.60;;;19.20;96.70;;;;;;5031107;28;20103;-84
2023/09/27 06:07:17;;;;;;;8.02;6.40;;;19.20;96.70;;;;;;5013163;28;20056;-82
2023/09/27 06:09:46;;;;;;;9.32;5.57;;;19.10;96.70;;;;;;5033558;28;20041;-82
2023/09/27 06:12:15;;;;;;;10.18;6.03;;;19.10;96.70;;;;;;5036405;28;20095;-84
2023/09/27 06:14:44;;;;;;;12.68;7.82;;;19.30;96.70;;;;;;5029272;28;20120;-84
2023/09/27 06:17:15;;;;;;;12.60;7.65;;;19.30;96.70;;;;;;5030813;28;20084;-83
2023/09/27 06:19:44;;;;;;;13.52;8.35;;;19.30;96.70;;;;;;5029646;28;20050;-85
2023/09/27 06:22:13;;;;;;;13.70;8.32;;;19.40;96.70;;;;;;5050579;28;20041;-83
2023/09/27 06:24:42;;;;;;;10.90;7.40;;;19.50;96.70;;;;;;5022703;28;20044;-83
2023/09/27 06:27:12;;;;;;;17.52;8.85;;;19.50;96.70;;;;;;5031521;28;20061;-82
2023/09/27 06:29:40;;;;;;;12.32;8.35;;;19.60;96.70;;;;;;5026836;28;20088;-79
2023/09/27 06:32:08;;;;;;;15.30;9.25;;;19.50;96.70;;;;;;5009997;28;20414;-79
2023/09/27 06:34:36;;;;;;;13.68;8.13;;;19.60;96.70;;;;;;5025129;28;20131;-79
2023/09/27 06:37:07;;;;;;;16.50;8.13;;;19.70;96.70;;;;;;5025317;28;20144;-79
2023/09/27 06:39:35;;;;;;;16.00;8.98;;;19.80;96.70;;;;;;5025514;28;20360;-79
2023/09/27 06:42:06;;;;;;;14.48;8.63;;;19.90;96.70;;;;;;5025411;28;20538;-80
2023/09/27 06:44:36;;;;;;;14.68;8.60;;;20.00;96.70;;;;;;5027470;28;20041;-80
2023/09/27 06:47:05;;;;;;;14.32;8.98;;;20.00;96.70;;;;;;5027468;28;20056;-80
2023/09/27 06:49:33;;;;;;;15.50;8.75;;;20.10;96.70;;;;;;5027215;28;20054;-80
2023/09/27 06:52:03;;;;;;;11.93;8.60;;;20.10;96.70;;;;;;5009348;28;20046;-79
2023/09/27 06:54:30;;;;;;;11.85;8.20;;;20.20;96.70;;;;;;5025738;28;20522;-79
2023/09/27 06:56:59;;;;;;;15.68;8.38;;;20.20;96.70;;;;;;5027027;28;20045;-80
2023/09/27 06:59:27;;;;;;;12.30;8.48;;;20.30;96.70;;;;;;5026652;28;20467;-79
2023/09/27 07:01:57;;;;;;;13.50;8.82;;;20.40;96.70;;;;;;5026791;28;20049;-79
2023/09/27 07:04:56;;;;;;;14.32;8.48;;;20.40;96.70;;;;;;5025052;28;20060;-80
2023/09/27 07:07:24;;;;;;;11.63;8.35;;;20.50;96.70;;;;;;5005004;28;20046;-80
2023/09/27 07:09:52;;;;;;;11.57;8.50;;;20.60;96.70;;;;;;5005325;28;20053;-80
2023/09/27 07:12:20;;;;;;;13.30;9.25;;;20.60;96.70;;;;;;5005865;28;20116;-79
2023/09/27 07:14:48;;;;;;;12.55;8.45;;;20.70;96.70;;;;;;5005696;28;20428;-79
2023/09/27 07:17:17;;;;;;;18.83;9.68;;;20.70;96.70;;;;;;5005819;28;20096;-80
2023/09/27 07:19:51;;;;;;;16.50;8.88;;;20.80;96.70;;;;;;5009071;28;20447;-81
2023/09/27 07:22:23;;;;;;;15.18;8.80;;;20.80;96.70;;;;;;5005589;28;20097;-80
2023/09/27 07:24:51;;;;;;;13.95;9.10;;;20.90;96.70;;;;;;5005417;28;20049;-80
2023/09/27 07:27:19;;;;;;;13.27;9.05;;;21.00;96.70;;;;;;5005105;28;20419;-80
2023/09/27 07:29:48;;;;;;;15.90;8.48;;;21.10;96.70;;;;;;4986213;28;20507;-80
2023/09/27 07:32:19;;;;;;;18.80;8.80;;;21.20;96.70;;;;;;5003396;28;20431;-79
2023/09/27 07:34:47;;;;;;;14.85;9.30;;;21.20;96.70;;;;;;5005125;28;20412;-80
2023/09/27 07:37:15;;;;;;;14.98;8.80;;;21.30;96.70;;;;;;4993083;28;20407;-79
2023/09/27 07:39:44;;;;;;;12.60;9.00;;;21.40;96.70;;;;;;5005896;28;20041;-80
2023/09/27 07:42:11;;;;;;;12.15;8.13;;;21.50;96.70;;;;;;5006462;28;20253;-80
2023/09/27 07:44:39;;;;;;;15.25;8.73;;;21.50;96.70;;;;;;5004733;28;20049;-80
2023/09/27 07:47:07;;;;;;;15.18;9.23;;;21.60;96.70;;;;;;4988114;28;20065;-79
2023/09/27 07:49:37;;;;;;;14.65;8.20;;;21.70;96.70;;;;;;5001855;28;20056;-79
2023/09/27 07:52:04;;;;;;;14.90;8.82;;;21.90;96.70;;;;;;5005073;28;20494;-79
2023/09/27 07:54:33;;;;;;;17.25;10.23;;;22.00;96.70;;;;;;4988727;28;20049;-80
2023/09/27 07:57:01;;;;;;;21.17;10.98;;;22.10;96.70;;;;;;5004702;28;20042;-80
2023/09/27 07:59:29;;;;;;;20.05;12.80;;;22.20;96.70;;;;;;5004235;28;20045;-80
2023/09/27 08:01:57;;;;;;;19.42;13.25;;;22.30;96.70;;;;;;4988456;28;20049;-80
2023/09/27 08:04:25;;;;;;;23.45;16.05;;;22.40;96.70;;;;;;5004233;28;20045;-79
2023/09/27 08:06:54;;;;;;;23.17;16.40;;;22.40;96.70;;;;;;5005338;28;20091;-79
2023/09/27 08:09:22;;;;;;;30.73;22.05;;;22.60;96.70;;;;;;5003705;28;20041;-79
2023/09/27 08:12:07;;;;;;;37.90;25.15;;;22.70;96.70;;;;;;5004563;28;20052;-80
2023/09/27 08:14:38;;;;;;;32.70;23.55;;;22.80;96.70;;;;;;5005677;28;20034;-79
2023/09/27 08:17:06;;;;;;;24.20;17.83;;;23.00;96.70;;;;;;5005015;28;20045;-79
2023/09/27 08:19:57;;;;;;;21.35;14.02;;;23.20;96.70;;;;;;5005579;28;20125;-79
2023/09/27 08:22:26;;;;;;;20.48;12.27;;;23.30;96.70;;;;;;5004112;28;20084;-80
2023/09/27 08:24:58;;;;;;;13.88;9.30;;;23.40;96.70;;;;;;5004046;28;20046;-80
2023/09/27 08:27:26;;;;;;;12.95;8.32;;;23.40;96.70;;;;;;5003785;28;20044;-81
2023/09/27 08:29:54;;;;;;;15.38;9.50;;;23.60;96.70;;;;;;5003715;28;20053;-81
2023/09/27 08:32:22;;;;;;;13.15;8.73;;;23.80;96.70;;;;;;5004271;28;20050;-81
2023/09/27 08:34:51;;;;;;;13.15;8.52;;;23.90;96.70;;;;;;5005801;28;20124;-82
2023/09/27 08:37:19;;;;;;;9.98;6.75;;;24.00;96.70;;;;;;5004056;28;20562;-80
2023/09/27 08:39:48;;;;;;;12.50;6.53;;;24.00;96.70;;;;;;5004178;28;20042;-81
2023/09/27 08:42:17;;;;;;;11.05;5.45;;;24.20;96.70;;;;;;5018799;28;20054;-80
2023/09/27 08:44:47;;;;;;;10.20;5.53;;;24.30;96.70;;;;;;5003860;28;20046;-80
2023/09/27 08:47:15;;;;;;;8.82;4.40;;;24.40;96.70;;;;;;4987716;28;20050;-81
2023/09/27 08:49:43;;;;;;;8.23;4.72;;;24.50;96.70;;;;;;4987692;28;20372;-81
2023/09/27 08:52:11;;;;;;;6.50;4.28;;;24.60;96.70;;;;;;5005040;28;20054;-81
2023/09/27 08:54:39;;;;;;;10.73;4.95;;;24.70;96.70;;;;;;5003667;28;20510;-81
2023/09/27 08:57:10;;;;;;;7.25;4.38;;;24.80;96.70;;;;;;5005328;28;20038;-80
2023/09/27 08:59:38;;;;;;;7.45;4.40;;;24.80;96.70;;;;;;5003756;28;20080;-79
2023/09/27 09:02:07;;;;;;;4.90;4.07;;;24.90;96.70;;;;;;5005959;28;20051;-81
2023/09/27 09:04:36;;;;;;;7.97;4.13;;;24.90;96.70;;;;;;5004672;28;20064;-81
2023/09/27 09:07:06;;;;;;;7.22;4.50;;;25.10;96.70;;;;;;5004440;28;20038;-81
2023/09/27 09:09:34;;;;;;;7.97;4.40;;;25.20;96.70;;;;;;5003781;28;20045;-80
2023/09/27 09:12:08;;;;;;;6.80;3.85;;;25.30;96.70;;;;;;5003213;28;20582;-81
2023/09/27 09:14:42;;;;;;;7.00;4.40;;;25.40;96.70;;;;;;5003257;28;20511;-81
2023/09/27 09:17:17;;;;;;;11.07;4.47;;;25.50;96.70;;;;;;5003503;28;20108;-82
2023/09/27 09:20:15;;;;;;;7.97;3.83;;;25.50;96.70;;;;;;4987188;28;20434;-81
2023/09/27 09:22:43;;;;;;;8.48;3.80;;;25.60;96.70;;;;;;5006772;28;20504;-81
2023/09/27 09:25:11;;;;;;;7.03;3.53;;;25.60;96.70;;;;;;5005332;28;20045;-81
2023/09/27 09:28:04;;;;;;;6.72;3.70;;;25.60;96.70;;;;;;5003205;28;20407;-80
2023/09/27 09:30:37;;;;;;;7.13;4.30;;;25.80;96.70;;;;;;4998051;28;20058;-80
2023/09/27 09:33:10;;;;;;;7.88;3.10;;;25.90;96.70;;;;;;5003771;28;20045;-81
2023/09/27 09:35:39;;;;;;;7.47;3.95;;;26.10;96.70;;;;;;5003853;28;20050;-81
2023/09/27 09:38:07;;;;;;;6.40;2.92;;;26.20;96.70;;;;;;5006959;28;20128;-81
2023/09/27 09:40:52;;;;;;;5.90;2.90;;;26.30;96.70;;;;;;5007352;28;20049;-81
2023/09/27 09:43:33;;;;;;;6.85;3.08;;;26.60;96.70;;;;;;5008819;28;20042;-80
2023/09/27 09:46:06;;;;;;;9.38;3.15;;;26.70;96.70;;;;;;5008475;28;20415;-80
2023/09/27 09:48:35;;;;;;;5.65;3.45;;;26.80;96.70;;;;;;5006993;28;20053;-80
2023/09/27 09:51:06;;;;;;;7.22;3.20;;;26.80;96.70;;;;;;5003225;28;20128;-80
2023/09/27 09:53:38;;;;;;;11.80;3.15;;;26.80;96.70;;;;;;5008753;28;20069;-81
2023/09/27 09:56:08;;;;;;;5.18;2.83;;;26.90;96.70;;;;;;5006833;28;20108;-80
2023/09/27 09:59:03;;;;;;;9.38;3.20;;;26.90;96.70;;;;;;5003793;28;20081;-81
2023/09/27 10:01:38;;;;;;;10.18;3.45;;;26.80;96.70;;;;;;5008538;28;20058;-81
2023/09/27 10:04:07;;;;;;;5.00;2.85;;;26.90;96.70;;;;;;5007985;28;20046;-81
2023/09/27 10:06:37;;;;;;;7.20;3.50;;;27.00;96.70;;;;;;5006977;28;20110;-81
2023/09/27 10:09:17;;;;;;;6.05;3.00;;;27.00;96.70;;;;;;5006974;28;20046;-81
2023/09/27 10:11:46;;;;;;;5.53;2.95;;;27.10;96.70;;;;;;5006707;28;20112;-81
2023/09/27 10:14:18;;;;;;;4.43;2.90;;;27.10;96.70;;;;;;5006792;28;20046;-81
2023/09/27 10:16:54;;;;;;;5.88;3.05;;;27.20;96.70;;;;;;5006637;28;20056;-80
2023/09/27 10:19:27;;;;;;;;;;;27.20;96.70;;;;;;5008677;28;20133;-80
2023/09/27 10:22:19;;;;;;;4.03;3.17;;;27.20;96.70;;;;;;5007039;28;20537;-81
2023/09/27 10:24:47;;;;;;;6.70;3.00;;;27.30;96.70;;;;;;4999207;28;20042;-81
2023/09/27 10:27:15;;;;;;;4.93;3.30;;;27.30;96.70;;;;;;4990161;28;20048;-80
2023/09/27 10:30:00;;;;;;;7.95;3.03;;;27.40;96.70;;;;;;5008524;28;20100;-81
2023/09/27 10:32:31;;;;;;;6.25;3.17;;;27.50;96.70;;;;;;5006571;28;20046;-81
2023/09/27 10:35:16;;;;;;;5.63;3.03;;;27.70;96.70;;;;;;4986819;28;20093;-81
2023/09/27 10:38:08;;;;;;;4.40;3.00;;;27.70;96.70;;;;;;5000680;28;20092;-81
2023/09/27 10:40:44;;;;;;;3.78;2.72;;;27.60;96.70;;;;;;5007315;28;20053;-81
2023/09/27 10:43:38;;;;;;;5.72;2.92;;;27.80;96.70;;;;;;5007603;28;20038;-82
2023/09/27 10:46:07;;;;;;;6.72;3.10;;;27.80;96.70;;;;;;5006397;28;20875;-81
2023/09/27 10:48:39;;;;;;;7.75;3.45;;;27.80;96.70;;;;;;5006417;28;20411;-81
2023/09/27 10:51:08;;;;;;;6.35;3.03;;;28.00;96.70;;;;;;5006627;28;20451;-81
2023/09/27 10:53:36;;;;;;;5.22;3.03;;;28.00;96.70;;;;;;5006067;28;20042;-81
2023/09/27 10:56:05;;;;;;;5.97;3.35;;;28.00;96.70;;;;;;5008495;28;20100;-81
2023/09/27 10:58:44;;;;;;;6.05;2.92;;;28.00;96.70;;;;;;5008201;28;20101;-81
2023/09/27 11:01:19;;;;;;;8.02;3.35;;;28.20;96.70;;;;;;5005547;28;20061;-81
2023/09/27 11:03:57;;;;;;;7.93;3.40;;;28.20;96.70;;;;;;4982874;28;20450;-81
2023/09/27 11:06:27;;;;;;;4.55;2.83;;;28.40;96.70;;;;;;5006279;28;20057;-81
2023/09/27 11:09:04;;;;;;;6.00;3.10;;;28.70;96.70;;;;;;5005088;28;20160;-80
2023/09/27 11:11:33;;;;;;;9.27;3.22;;;28.60;96.70;;;;;;5004864;28;20057;-80
2023/09/27 11:14:01;;;;;;;7.10;3.75;;;28.60;96.70;;;;;;5006675;28;20076;-80
2023/09/27 11:16:30;;;;;;;6.07;3.30;;;28.90;96.70;;;;;;5007461;28;20050;-80
2023/09/27 11:19:00;;;;;;;7.65;3.08;;;29.00;96.70;;;;;;5007114;28;20040;-81
2023/09/27 11:21:29;;;;;;;7.93;2.72;;;29.10;96.70;;;;;;5005885;28;20049;-81
2023/09/27 11:23:58;;;;;;;4.13;2.97;;;29.20;96.70;;;;;;4989120;28;20046;-81
2023/09/27 11:26:29;;;;;;;6.07;3.03;;;29.30;96.70;;;;;;4999503;28;20076;-81
2023/09/27 11:28:58;;;;;;;5.95;2.92;;;29.40;96.70;;;;;;5012044;28;20377;-82
2023/09/27 11:31:28;;;;;;;10.40;3.70;;;29.40;96.70;;;;;;4989266;28;20523;-80
2023/09/27 11:34:17;;;;;;;5.75;2.75;;;29.50;96.70;;;;;;5009405;28;20046;-82
2023/09/27 11:36:47;;;;;;;5.72;3.45;;;29.40;96.70;;;;;;4996149;28;20083;-83
2023/09/27 11:39:17;;;;;;;6.78;2.88;;;29.50;96.70;;;;;;5010602;28;20152;-82
2023/09/27 11:41:46;;;;;;;4.55;2.83;;;29.60;96.70;;;;;;5011261;28;20057;-82
2023/09/27 11:44:18;;;;;;;4.20;3.00;;;29.70;96.70;;;;;;5013466;28;20672;-82
2023/09/27 11:46:49;;;;;;;5.88;3.22;;;29.50;96.70;;;;;;5005278;28;20050;-80
2023/09/27 11:49:25;;;;;;;5.22;3.33;;;29.30;96.70;;;;;;4996432;28;20112;-81
2023/09/27 11:51:53;;;;;;;8.32;2.97;;;29.30;96.70;;;;;;5007002;28;20140;-81
2023/09/27 11:54:21;;;;;;;4.80;2.97;;;29.40;96.70;;;;;;5010603;28;20046;-83
2023/09/27 11:56:50;;;;;;;6.43;2.70;;;29.50;96.70;;;;;;5006743;28;20041;-83
2023/09/27 11:59:18;;;;;;;5.55;3.00;;;29.50;96.70;;;;;;5006235;28;20069;-83
2023/09/27 12:01:48;;;;;;;5.47;3.00;;;29.80;96.70;;;;;;4977632;28;20479;-84
2023/09/27 12:04:18;;;;;;;5.47;2.63;;;29.80;96.70;;;;;;4985466;28;20143;-84
2023/09/27 12:06:47;;;;;;;6.95;3.17;;;29.70;96.70;;;;;;4982494;28;20051;-84
2023/09/27 12:09:16;;;;;;;5.95;3.00;;;29.70;96.70;;;;;;4957609;28;20038;-82
2023/09/27 12:11:44;;;;;;;5.10;2.80;;;29.90;96.70;;;;;;4968836;28;20058;-82
2023/09/27 12:14:12;;;;;;;8.90;3.13;;;29.90;96.70;;;;;;4975449;28;20097;-82
2023/09/27 12:16:41;;;;;;;5.90;2.97;;;30.00;96.70;;;;;;4982184;28;20057;-83
2023/09/27 12:19:09;;;;;;;4.13;3.00;;;30.00;96.70;;;;;;4981822;28;20047;-83
2023/09/27 12:21:39;;;;;;;9.10;3.47;;;30.00;96.70;;;;;;4977748;28;20539;-82
2023/09/27 12:24:07;;;;;;;5.80;2.70;;;30.10;96.70;;;;;;4982571;28;20629;-83
2023/09/27 12:26:36;;;;;;;4.25;3.50;;;30.20;96.70;;;;;;4985875;28;20069;-82
2023/09/27 12:29:05;;;;;;;6.10;3.10;;;30.40;96.70;;;;;;4979309;28;20049;-83
2023/09/27 12:31:33;;;;;;;5.38;2.90;;;30.60;96.70;;;;;;4967296;28;20058;-82
2023/09/27 12:34:01;;;;;;;7.22;2.83;;;30.50;96.70;;;;;;4977099;28;20504;-82
2023/09/27 12:36:29;;;;;;;6.03;2.70;;;30.40;96.70;;;;;;4984046;28;20116;-83
2023/09/27 12:38:59;;;;;;;4.95;2.65;;;30.20;96.70;;;;;;4965583;28;20500;-81
2023/09/27 12:41:28;;;;;;;9.07;2.90;;;30.10;96.70;;;;;;4979762;28;20405;-81
2023/09/27 12:43:56;;;;;;;4.97;2.58;;;30.00;96.70;;;;;;4968778;28;20061;-83
2023/09/27 12:46:24;;;;;;;4.40;2.85;;;30.00;96.70;;;;;;4985273;28;20053;-82
2023/09/27 12:48:53;;;;;;;7.05;3.20;;;30.00;96.70;;;;;;4962946;28;20050;-81
2023/09/27 12:51:22;;;;;;;6.40;3.42;;;30.00;96.70;;;;;;4961498;28;20046;-82
2023/09/27 12:54:08;;;;;;;7.20;3.30;;;29.80;96.70;;;;;;4966018;28;20134;-81
2023/09/27 12:56:37;;;;;;;7.28;3.10;;;30.10;96.70;;;;;;4976681;28;20078;-79
2023/09/27 12:59:05;;;;;;;6.10;2.63;;;30.10;96.70;;;;;;4979575;28;20484;-83
2023/09/27 13:01:33;;;;;;;4.72;2.90;;;30.20;96.70;;;;;;4982794;28;20149;-82